createdAt,value
2022-11-07T00:00:14.019Z,11.08
2022-11-07T00:05:15.620Z,10.92
2022-11-07T00:10:17.281Z,10.81
2022-11-07T00:15:18.824Z,10.77
2022-11-07T00:20:20.408Z,10.97
2022-11-07T00:25:21.932Z,11.20
2022-11-07T00:30:23.545Z,11.00
2022-11-07T00:35:25.220Z,10.83
2022-11-07T00:40:26.727Z,10.78
2022-11-07T00:45:28.380Z,10.82
2022-11-07T00:50:29.873Z,10.70
2022-11-07T00:55:32.475Z,10.67
2022-11-07T01:00:34.041Z,10.75
2022-11-07T01:05:35.743Z,10.85
2022-11-07T01:10:41.750Z,10.87
2022-11-07T01:15:43.282Z,10.71
2022-11-07T01:20:44.844Z,10.70
2022-11-07T01:25:46.389Z,10.93
2022-11-07T01:30:47.934Z,11.08
2022-11-07T01:35:49.733Z,11.29
2022-11-07T01:40:51.299Z,11.32
2022-11-07T01:45:53.082Z,11.17
2022-11-07T01:50:54.690Z,10.89
2022-11-07T01:55:56.324Z,10.57
2022-11-07T02:00:58.194Z,10.34
2022-11-07T02:06:05.503Z,10.12
2022-11-07T02:11:07.391Z,10.06
2022-11-07T02:16:09.037Z,10.13
2022-11-07T02:21:27.382Z,10.23
2022-11-07T02:26:29.362Z,10.19
2022-11-07T02:31:30.905Z,9.98
2022-11-07T02:36:33.295Z,9.85
2022-11-07T02:41:35.078Z,9.70
2022-11-07T02:46:37.222Z,9.72
2022-11-07T02:51:38.995Z,9.89
2022-11-07T02:56:40.649Z,9.86
2022-11-07T03:01:42.255Z,10.07
2022-11-07T03:06:43.887Z,10.02
2022-11-07T03:11:45.427Z,9.95
2022-11-07T03:16:46.925Z,9.91
2022-11-07T03:21:50.372Z,9.94
2022-11-07T03:26:51.923Z,10.09
2022-11-07T03:31:54.283Z,10.07
2022-11-07T03:36:55.867Z,10.02
2022-11-07T03:41:57.471Z,9.99
2022-11-07T03:46:58.989Z,10.05
2022-11-07T03:52:00.608Z,10.08
2022-11-07T03:57:02.189Z,10.11
2022-11-07T04:02:03.879Z,10.16
2022-11-07T04:07:05.639Z,10.10
2022-11-07T04:12:07.585Z,10.14
2022-11-07T04:17:11.310Z,10.04
2022-11-07T04:22:12.888Z,9.85
2022-11-07T04:27:15.780Z,9.78
2022-11-07T04:32:17.322Z,9.79
2022-11-07T04:37:19.398Z,9.96
2022-11-07T04:42:21.148Z,9.89
2022-11-07T04:47:22.721Z,9.75
2022-11-07T04:52:24.430Z,9.85
2022-11-07T04:57:26.002Z,9.91
2022-11-07T05:02:27.746Z,10.23
2022-11-07T05:07:29.427Z,10.62
2022-11-07T05:12:30.935Z,10.58
2022-11-07T05:17:32.572Z,10.49
2022-11-07T05:22:34.066Z,10.44
2022-11-07T05:27:35.587Z,10.44
2022-11-07T05:32:37.172Z,10.32
2022-11-07T05:37:38.721Z,10.18
2022-11-07T05:42:40.654Z,9.89
2022-11-07T05:47:42.150Z,9.79
2022-11-07T05:52:43.719Z,9.85
2022-11-07T05:57:46.019Z,9.96
2022-11-07T06:02:58.443Z,10.05
2022-11-07T06:08:00.136Z,10.42
2022-11-07T06:13:03.522Z,10.65
2022-11-07T06:18:07.548Z,10.88
2022-11-07T06:23:09.768Z,11.22
2022-11-07T06:28:12.578Z,11.44
2022-11-07T06:33:16.975Z,11.64
2022-11-07T06:38:18.848Z,11.78
2022-11-07T06:43:20.924Z,11.85
2022-11-07T06:48:22.601Z,12.01
2022-11-07T06:53:24.167Z,12.09
2022-11-07T06:58:25.745Z,12.17
2022-11-07T07:03:27.315Z,12.31
2022-11-07T07:08:29.158Z,12.43
2022-11-07T07:13:30.742Z,12.45
2022-11-07T07:18:32.634Z,12.53
2022-11-07T07:23:35.405Z,12.62
2022-11-07T07:28:37.029Z,12.73
2022-11-07T07:33:38.747Z,12.81
2022-11-07T07:38:40.659Z,13.11
2022-11-07T07:43:42.385Z,13.53
2022-11-07T07:48:43.961Z,13.62
2022-11-07T07:53:45.541Z,13.62
2022-11-07T07:58:47.443Z,13.64
2022-11-07T08:04:01.321Z,13.64
2022-11-07T08:09:05.007Z,13.70
2022-11-07T08:14:06.591Z,13.72
2022-11-07T08:19:08.333Z,13.84
2022-11-07T08:24:09.938Z,13.81
2022-11-07T08:29:11.540Z,13.84
2022-11-07T08:34:13.471Z,14.00
2022-11-07T08:39:15.016Z,14.11
2022-11-07T08:44:16.485Z,14.34
2022-11-07T08:49:18.086Z,14.55
2022-11-07T08:54:19.617Z,14.62
2022-11-07T08:59:21.443Z,14.68
2022-11-07T09:04:23.095Z,14.65
2022-11-07T09:09:25.086Z,14.12
2022-11-07T09:14:26.623Z,14.21
2022-11-07T09:19:28.224Z,14.54
2022-11-07T09:24:29.865Z,14.77
2022-11-07T09:29:31.507Z,14.95
2022-11-07T09:34:33.046Z,15.17
2022-11-07T09:39:34.551Z,15.33
2022-11-07T09:44:54.090Z,15.60
2022-11-07T09:50:03.904Z,15.86
2022-11-07T09:55:20.673Z,16.00
2022-11-07T10:00:22.836Z,16.03
2022-11-07T10:05:36.527Z,15.94
2022-11-07T10:10:55.484Z,16.02
2022-11-07T10:16:13.308Z,15.98
2022-11-07T10:21:37.096Z,16.08
2022-11-07T10:26:37.178Z,16.28
2022-11-07T10:31:43.656Z,16.47
2022-11-07T10:36:45.269Z,17.16
2022-11-07T10:41:59.022Z,17.02
2022-11-07T10:47:00.687Z,16.69
2022-11-07T10:52:14.491Z,17.07
2022-11-07T10:57:18.927Z,17.19
2022-11-07T11:02:23.493Z,17.23
2022-11-07T11:07:32.729Z,17.30
2022-11-07T11:12:34.876Z,17.72
2022-11-07T11:17:36.572Z,18.30
2022-11-07T11:22:41.627Z,18.67
2022-11-07T11:27:47.999Z,18.31
2022-11-07T11:33:03.997Z,17.41
2022-11-07T11:38:11.750Z,17.89
2022-11-07T11:43:22.625Z,17.94
2022-11-07T11:48:29.513Z,18.10
2022-11-07T11:53:31.125Z,17.81
2022-11-07T11:58:32.527Z,18.29
2022-11-07T12:04:05.397Z,18.26
2022-11-07T12:09:27.677Z,18.62
2022-11-07T12:14:43.104Z,18.53
2022-11-07T12:20:13.919Z,18.45
2022-11-07T12:25:29.831Z,18.59
2022-11-07T12:30:53.013Z,17.89
2022-11-07T12:36:02.184Z,17.90
2022-11-07T12:41:11.788Z,18.04
2022-11-07T12:46:25.290Z,17.63
2022-11-07T12:52:02.345Z,17.56
2022-11-07T12:57:06.643Z,17.70
2022-11-07T13:02:49.950Z,17.53
2022-11-07T13:08:04.343Z,17.65
2022-11-07T13:13:14.853Z,17.77
2022-11-07T13:18:27.511Z,17.41
2022-11-07T13:23:29.656Z,17.58
2022-11-07T13:28:36.999Z,17.23
2022-11-07T13:33:38.630Z,17.26
2022-11-07T13:38:51.540Z,17.17
2022-11-07T13:43:57.721Z,17.15
2022-11-07T13:49:20.693Z,16.99
2022-11-07T13:54:37.416Z,17.07
2022-11-07T13:59:52.239Z,17.13
2022-11-07T14:05:15.158Z,17.13
2022-11-07T14:10:31.697Z,17.00
2022-11-07T14:15:34.616Z,16.99
2022-11-07T14:20:36.212Z,17.11
2022-11-07T14:25:37.771Z,16.91
2022-11-07T14:30:41.923Z,16.83
2022-11-07T14:35:48.794Z,16.82
2022-11-07T14:40:54.982Z,16.63
2022-11-07T14:46:12.379Z,16.57
2022-11-07T14:51:18.752Z,16.64
2022-11-07T14:56:25.784Z,16.62
2022-11-07T15:01:33.022Z,16.60
2022-11-07T15:06:43.432Z,16.53
2022-11-07T15:11:59.812Z,16.39
2022-11-07T15:17:02.892Z,16.19
2022-11-07T15:22:05.528Z,15.92
2022-11-07T15:27:13.313Z,15.80
2022-11-07T15:32:21.329Z,15.68
2022-11-07T15:37:25.497Z,15.55
2022-11-07T15:42:27.006Z,15.44
2022-11-07T15:47:28.683Z,15.66
2022-11-07T15:52:30.176Z,15.58
2022-11-07T15:57:33.373Z,15.45
2022-11-07T16:02:34.962Z,15.36
2022-11-07T16:07:36.895Z,15.30
2022-11-07T16:12:38.439Z,15.09
2022-11-07T16:17:40.189Z,15.03
2022-11-07T16:22:45.485Z,15.04
2022-11-07T16:27:58.524Z,14.99
2022-11-07T16:33:00.092Z,15.07
2022-11-07T16:38:01.702Z,15.12
2022-11-07T16:43:03.220Z,15.13
2022-11-07T16:48:05.786Z,14.94
2022-11-07T16:53:12.325Z,14.81
2022-11-07T16:58:21.312Z,14.61
2022-11-07T17:03:23.473Z,14.42
2022-11-07T17:08:30.884Z,14.45
2022-11-07T17:13:32.577Z,14.42
2022-11-07T17:18:34.225Z,14.42
2022-11-07T17:23:35.803Z,14.32
2022-11-07T17:28:37.392Z,14.28
2022-11-07T17:33:38.918Z,14.28
2022-11-07T17:38:40.446Z,14.22
2022-11-07T17:43:42.015Z,14.19
2022-11-07T17:48:47.276Z,14.26
2022-11-07T17:53:49.356Z,14.25
2022-11-07T17:58:54.692Z,14.26
2022-11-07T18:03:56.414Z,14.33
2022-11-07T18:08:58.799Z,14.38
2022-11-07T18:14:01.429Z,14.60
2022-11-07T18:19:04.098Z,14.66
2022-11-07T18:24:06.184Z,14.73
2022-11-07T18:29:10.719Z,14.76
2022-11-07T18:34:13.533Z,14.87
2022-11-07T18:39:18.162Z,14.82
2022-11-07T18:44:20.016Z,14.62
2022-11-07T18:49:21.533Z,14.37
2022-11-07T18:54:23.214Z,14.26
2022-11-07T18:59:24.758Z,14.16
2022-11-07T19:04:26.422Z,14.10
2022-11-07T19:09:31.152Z,14.02
2022-11-07T19:14:33.420Z,14.01
2022-11-07T19:19:35.176Z,13.95
2022-11-07T19:24:36.855Z,14.00
2022-11-07T19:29:38.565Z,14.14
2022-11-07T19:34:40.241Z,14.14
2022-11-07T19:39:43.055Z,13.79
2022-11-07T19:44:50.480Z,13.63
2022-11-07T19:49:53.470Z,13.45
2022-11-07T19:54:55.350Z,13.14
2022-11-07T19:59:56.973Z,13.00
2022-11-07T20:04:58.509Z,12.81
2022-11-07T20:10:00.245Z,12.67
2022-11-07T20:15:01.917Z,12.55
2022-11-07T20:20:08.329Z,12.51
2022-11-07T20:25:12.465Z,12.69
2022-11-07T20:30:14.476Z,12.72
2022-11-07T20:35:16.044Z,12.83
2022-11-07T20:40:17.707Z,12.82
2022-11-07T20:45:19.258Z,12.67
2022-11-07T20:50:20.762Z,12.56
2022-11-07T20:55:22.456Z,12.51
2022-11-07T21:00:24.311Z,12.49
2022-11-07T21:05:26.089Z,12.42
2022-11-07T21:10:27.717Z,12.23
2022-11-07T21:15:29.352Z,12.10
2022-11-07T21:20:31.057Z,12.03
2022-11-07T21:25:39.959Z,12.04
2022-11-07T21:30:41.542Z,11.94
2022-11-07T21:35:43.114Z,11.72
2022-11-07T21:40:44.774Z,11.64
2022-11-07T21:45:46.563Z,11.59
2022-11-07T21:50:48.136Z,11.53
2022-11-07T21:55:49.698Z,11.39
2022-11-07T22:00:51.307Z,11.09
2022-11-07T22:05:52.861Z,10.90
2022-11-07T22:10:54.523Z,10.76
2022-11-07T22:16:08.232Z,10.56
2022-11-07T22:21:12.377Z,10.80
2022-11-07T22:26:15.546Z,11.14
2022-11-07T22:31:20.178Z,11.09
2022-11-07T22:36:21.863Z,11.02
2022-11-07T22:41:25.668Z,10.95
2022-11-07T22:46:30.592Z,11.06
2022-11-07T22:51:34.602Z,11.15
2022-11-07T22:56:37.207Z,11.43
2022-11-07T23:01:41.337Z,11.99
2022-11-07T23:06:43.036Z,12.26
2022-11-07T23:11:46.489Z,12.49
2022-11-07T23:16:53.830Z,12.63
2022-11-07T23:21:55.997Z,12.60
2022-11-07T23:26:57.511Z,12.47
2022-11-07T23:31:59.059Z,12.42
2022-11-07T23:37:00.732Z,12.34
2022-11-07T23:42:02.291Z,12.00
2022-11-07T23:47:03.914Z,12.00
2022-11-07T23:52:05.633Z,12.44
2022-11-07T23:57:07.159Z,12.80
